Pagrindinis puslapis
METAR-TAF:

METAR-TAF

Oro uostai :

Resistensija, Argentina

platuma: 27-27S, ilguma: 059-03W, Aukštis: 53 m

Dabartinis oras

Ataskaita buvo paskelbta 52 minutes, ne 13:00 UTC
Vėjas 5 kt iš Rytų/Šiaurės Rytų
Temperatūra 27°C
Drėgmė 84%
Slėgis 1014 hPa
Matomumas 10 km arba daugiau
nėra debesų žemiau 1500 m ir nėra kamuolinių lietaus debesų

METAR: SARE 311300Z 07005KT CAVOK 27/24 Q1014

Laikas: 10:52 (13:52 UTC)

Prognozė

Ataskaita buvo paskelbta 2 valandos ir 52 minutes, ne 11:00 UTC
Prognozė galioja nuo 31 metu 12 UTC su 01 metu 12 UTC
Vėjas 5 kt iš Pietų
Matomumas: 9000 m
Su prošvaistėmis ne aukštis 10000 ft
Tikimybė 40%
nuo 31 metu 17 UTC su 31 metu 20 UTC
Matomumas: 8000 m
Apsiniaukę ne aukštis 3000 ft
Mažai debesys ne aukštis 5500 ft, Liūtiniai kamuoliniai debesys.
perkūnija, lietus

TAF: SARE 311100Z 3112/0112 17005KT 9000 BKN100 TX32/3117Z TN22/0109Z PROB40 3117/3120 8000 -TSRA OVC030 FEW055CB

Orai ataskaitas ir orų prognozės (METAR, TAF).

turimą stotys yra geltonos ir raudonos taškus žemėlapyje.

Perkelti pele per norėdami pamatyti stoties vardą.

Tada spustelėkite, norėdami matyti oro stebėjimo ir prognozės.

Norėdami pakeisti žemėlapį: spustelėkite ant žalios mygtukų su juodo kryžiaus žemyn,; žalią mygtuką su brūkšneliu, jei norite nutolinti; arba žalių rodyklių gretimoms žemėlapius.


METAR-TAF: